• Join FlightAware (Why Join?)
  • Login
  • US Flag 
02:00AM EST


 

Airport Tracker/Info


-or-


 

Live Flight TrackerFlight Track Log ✈ DAL3672 ✈ 12-Apr-2013 ✈ KMHT - KDTW

Flight Track Log - Related Links

Times and Time Zones

All times are in EDT time to prevent confusion due to time zone crossing. See the DAL3672 flight status page for this flight to view local times or setup timezone preferences in your user account.

Time Position Orientation Groundspeed Altitude Reporting Facility
EDT Latitude Longitude Course Direction KTS MPH feet Rate Location/Type
02:24PM 42.9500 -71.4167 North 153 176 1,300  Level KA90
02:25PM 43.0064 -71.4039 North 214 246 3,200 1,740 Climbing Boston Center
02:26PM 43.0528 -71.4569 320° Northwest 209 241 4,900 2,760 Climbing Boston Center
02:27PM 43.0889 -71.5586 296° West 234 269 8,800 2,760 Climbing Boston Center
02:28PM 43.0917 -71.6411 273° West 222 255 10,400 1,440 Climbing Boston Center
02:29PM 43.0944 -71.7464 272° West 247 284 11,700 1,080 Climbing Boston Center
02:30PM 43.0992 -71.8628 273° West 299 344 12,600 1,140 Climbing Boston Center
02:31PM 43.1039 -71.9794 273° West 310 357 14,100 1,560 Climbing Boston Center
02:32PM 43.1064 -72.0989 272° West 315 362 15,800 1,560 Climbing Boston Center
02:33PM 43.1108 -72.2156 273° West 309 356 17,300 960 Climbing Boston Center
02:34PM 43.1153 -72.3264 273° West 309 356 17,800 720 Climbing Boston Center
02:35PM 43.1172 -72.4514 271° West 321 369 18,800 1,140 Climbing Boston Center
02:36PM 43.1297 -72.5739 278° West 327 376 20,100 1,320 Climbing Boston Center
02:37PM 43.1233 -72.7103 266° West 327 376 21,500 1,140 Climbing Boston Center
02:38PM 43.1272 -72.8042 273° West 327 376 22,400 840 Climbing Boston Center
02:39PM 43.1308 -72.9550 272° West 327 376 23,200 780 Climbing Boston Center
02:40PM 43.1344 -73.0717 272° West 333 383 24,000 900 Climbing Boston Center
02:41PM 43.1378 -73.1969 272° West 333 383 25,000 960 Climbing Boston Center
02:42PM 43.1411 -73.3222 272° West 333 383 26,000 480 Climbing Boston Center
02:43PM 43.1483 -73.4589 274° West 328 377 26,000  Level Boston Center
02:44PM 43.1678 -73.5931 281° West 344 396 26,000  Level Boston Center
02:45PM 43.1892 -73.7300 282° West 356 410 26,000 240 Level Boston Center
02:46PM 43.2083 -73.8644 281° West 361 415 26,500 480 Climbing Boston Center
02:47PM 43.2297 -73.9989 282° West 361 415 27,000 480 Climbing Boston Center
02:48PM 43.2547 -74.1364 284° West 366 421 27,500 480 Climbing Boston Center
02:49PM 43.2778 -74.2739 283° West 366 421 28,000 240 Climbing Boston Center
02:50PM 43.3006 -74.4086 283° West 371 427 28,000  Level Boston Center
02:51PM 43.3272 -74.5436 285° West 371 427 28,000  Level Boston Center
02:52PM 43.3453 -74.6814 280° West 371 427 28,000  Level Boston Center
02:53PM 43.3322 -74.8150 262° West 365 420 28,000  Level Boston Center
02:54PM 43.3211 -74.9486 264° West 365 420 28,000  Level Boston Center
02:55PM 43.3078 -75.0822 262° West 365 420 28,000  Level Boston Center
02:56PM 43.2939 -75.2217 262° West 370 426 28,000  Level Boston Center
02:57PM 43.2822 -75.3608 263° West 370 426 28,000  Level Boston Center
02:58PM 43.2731 -75.4686 263° West 370 426 28,000  Level Boston Center
02:59PM 43.2608 -75.6164 264° West 365 420 28,000  Level Boston Center
03:00PM 43.2464 -75.7525 262° West 365 420 28,000  Level Boston Center
03:01PM 43.2342 -75.8858 263° West 365 420 28,000  Level Boston Center
03:02PM 43.2217 -76.0192 263° West 365 420 28,000  Level Boston Center
03:03PM 43.2089 -76.1581 263° West 365 420 28,000  Level Boston Center
03:05PM 43.1783 -76.4489 262° West 369 425 28,000  Level Cleveland Center
03:06PM 43.1644 -76.5839 262° West 369 425 28,000  Level Cleveland Center
03:07PM 43.1481 -76.7158 260° West 364 419 28,000  Level Cleveland Center
03:08PM 43.1336 -76.8533 262° West 364 419 28,000  Level Cleveland Center
03:09PM 43.1211 -76.9850 263° West 359 413 28,000  Level Cleveland Center
03:10PM 43.1067 -77.1194 262° West 359 413 28,000  Level Cleveland Center
03:11PM 43.0917 -77.2511 261° West 353 406 28,000  Level Cleveland Center
03:12PM 43.0767 -77.3828 261° West 353 406 28,000  Level Cleveland Center
03:13PM 43.0614 -77.5142 261° West 353 406 28,000  Level Cleveland Center
03:14PM 43.0481 -77.6456 262° West 353 406 28,000  Level Cleveland Center
03:15PM 43.0347 -77.7769 262° West 353 406 28,000  Level Cleveland Center
03:16PM 43.0192 -77.9083 261° West 353 406 28,000  Level Cleveland Center
03:17PM 43.0033 -78.0422 261° West 353 406 28,000  Level Cleveland Center
03:18PM 42.9875 -78.1708 260° West 353 406 28,000  Level Cleveland Center
03:19PM 42.9733 -78.3019 262° West 353 406 28,000  Level Cleveland Center
03:20PM 42.9550 -78.4300 259° West 353 406 28,000  Level Cleveland Center
03:21PM 42.9406 -78.5611 261° West 353 406 28,000  Level Cleveland Center
03:22PM 42.9242 -78.6922 260° West 353 406 28,000  Level Cleveland Center
03:23PM 42.9053 -78.8203 259° West 353 406 28,000  Level Cleveland Center
03:24PM 42.8883 -78.9481 260° West 353 406 28,000  Level Cleveland Center
03:25PM 42.8714 -79.0761 260° West 353 406 28,000  Level Cleveland Center
03:26PM 42.8500 -79.2042 257° West 353 406 28,000  Level Cleveland Center
03:27PM 42.8286 -79.3347 257° West 353 406 28,000  Level Cleveland Center
03:28PM 42.8133 -79.4625 261° West 353 406 28,000  Level Cleveland Center
03:29PM 42.7936 -79.5958 259° West 353 406 28,000  Level Cleveland Center
03:30PM 42.7739 -79.7261 258° West 359 413 28,000  Level Cleveland Center
03:31PM 42.7539 -79.8622 259° West 359 413 28,000  Level Cleveland Center
03:32PM 42.7464 -80.0064 266° West 371 427 28,000  Level Cleveland Center
03:33PM 42.7367 -80.1422 264° West 379 436 28,000  Level Cleveland Center
03:34PM 42.7350 -80.2836 269° West 379 436 28,000  Level Cleveland Center
03:35PM 42.7269 -80.4192 265° West 373 429 28,000  Level Cleveland Center
03:36PM 42.7208 -80.5633 267° West 373 429 28,000  Level Cleveland Center
03:37PM 42.7144 -80.7189 267° West 373 429 28,000 -2,040 Level Cleveland Center
03:38PM 42.7078 -80.8628 266° West 378 435 24,000 -1,320 Descending Cleveland Center
03:39PM 42.6969 -80.9956 264° West 373 429 25,400  Climbing Cleveland Center
03:40PM 42.6800 -81.1197 260° West 359 413 24,100 -720 Descending Cleveland Center
03:41PM 42.6667 -81.2494 262° West 353 406 24,000 -60 Descending Cleveland Center
03:42PM 42.6514 -81.3792 261° West 353 406 24,000  Level Cleveland Center
03:43PM 42.6356 -81.5117 261° West 353 406 24,000  Level Cleveland Center
03:44PM 42.6178 -81.6442 260° West 353 406 24,000 -660 Level Cleveland Center
03:45PM 42.6042 -81.7764 262° West 353 406 22,700 -1,500 Descending Cleveland Center
03:46PM 42.5883 -81.8889 259° West 353 406 21,100 -1,740 Descending Cleveland Center
03:47PM 42.5722 -82.0183 260° West 353 406 19,300 -1,980 Descending Cleveland Center
03:48PM 42.5581 -82.1419 261° West 353 406 17,200 -1,920 Descending Cleveland Center
03:49PM 42.5417 -82.2683 260° West 353 406 15,500 -1,800 Descending Cleveland Center
03:50PM 42.5272 -82.3975 261° West 320 368 13,800 -1,680 Descending Cleveland Center
03:51PM 42.5128 -82.5069 260° West 333 383 12,200 -1,020 Descending Cleveland Center
03:52PM 42.4839 -82.6186 251° West 288 331 11,800 -1,020 Descending Cleveland Center
03:53PM 42.4531 -82.7078 245° Southwest 252 290 10,200 -1,560 Descending Cleveland Center
03:54PM 42.4203 -82.7911 242° Southwest 248 285 8,700 -1,560 Descending Cleveland Center
03:55PM 42.3628 -82.8536 219° Southwest 250 288 7,100 -960 Descending Cleveland Center
03:56PM 42.3653 -82.9325 272° West 239 275 6,900 -600 Descending Cleveland Center
03:57PM 42.3864 -83.0261 287° West 217 250 6,000 -600 Descending Cleveland Center
03:58PM 42.4039 -83.0831 293° West 208 239 5,700 -420 Descending Cleveland Center
03:59PM 42.4233 -83.1400 295° West 188 216 5,200 -360 Descending Cleveland Center
04:00PM 42.4011 -83.2011 244° Southwest 160 184 5,000 -600 Descending Cleveland Center
04:01PM 42.3589 -83.2303 207° Southwest 157 181 4,000 -900 Descending Cleveland Center
04:02PM 42.3164 -83.2650 211° Southwest 155 178 3,000 -900 Descending Cleveland Center
04:03PM 42.2825 -83.2886 207° Southwest 139 160 2,200 -840 Descending Cleveland Center
04:04PM 42.2483 -83.3153 210° Southwest 132 152 1,400 -720 Descending Cleveland Center